sensor_id;sensor_type;location;lat;lon;timestamp;P1;durP1;ratioP1;P2;durP2;ratioP2
4460;SDS011;2243;48.812;9.232;2023-07-29T00:00:28;3.93;;;3.60;;
4460;SDS011;2243;48.812;9.232;2023-07-29T00:02:59;5.43;;;3.67;;
4460;SDS011;2243;48.812;9.232;2023-07-29T00:05:30;8.27;;;4.00;;
4460;SDS011;2243;48.812;9.232;2023-07-29T00:08:01;4.43;;;3.60;;
4460;SDS011;2243;48.812;9.232;2023-07-29T00:10:34;4.67;;;3.73;;
4460;SDS011;2243;48.812;9.232;2023-07-29T00:13:07;5.33;;;3.00;;
4460;SDS011;2243;48.812;9.232;2023-07-29T00:15:38;4.40;;;4.00;;
4460;SDS011;2243;48.812;9.232;2023-07-29T00:18:09;4.20;;;3.27;;
4460;SDS011;2243;48.812;9.232;2023-07-29T00:20:40;3.40;;;3.17;;
4460;SDS011;2243;48.812;9.232;2023-07-29T00:23:11;4.20;;;3.50;;
4460;SDS011;2243;48.812;9.232;2023-07-29T00:25:42;4.67;;;4.27;;
4460;SDS011;2243;48.812;9.232;2023-07-29T00:28:13;3.43;;;3.13;;
4460;SDS011;2243;48.812;9.232;2023-07-29T00:30:44;4.30;;;3.90;;
4460;SDS011;2243;48.812;9.232;2023-07-29T00:33:15;3.63;;;3.40;;
4460;SDS011;2243;48.812;9.232;2023-07-29T00:35:46;7.03;;;4.70;;
4460;SDS011;2243;48.812;9.232;2023-07-29T00:38:16;3.60;;;3.30;;
4460;SDS011;2243;48.812;9.232;2023-07-29T00:40:47;3.97;;;3.67;;
4460;SDS011;2243;48.812;9.232;2023-07-29T00:43:18;5.77;;;3.37;;
4460;SDS011;2243;48.812;9.232;2023-07-29T00:45:49;7.60;;;3.60;;
4460;SDS011;2243;48.812;9.232;2023-07-29T00:48:21;3.13;;;2.83;;
4460;SDS011;2243;48.812;9.232;2023-07-29T00:50:52;3.50;;;3.20;;
4460;SDS011;2243;48.812;9.232;2023-07-29T00:53:24;4.70;;;3.40;;
4460;SDS011;2243;48.812;9.232;2023-07-29T00:55:55;3.20;;;3.00;;
4460;SDS011;2243;48.812;9.232;2023-07-29T00:58:26;3.40;;;3.20;;
4460;SDS011;2243;48.812;9.232;2023-07-29T01:00:57;7.70;;;3.03;;
4460;SDS011;2243;48.812;9.232;2023-07-29T01:03:28;3.20;;;2.90;;
4460;SDS011;2243;48.812;9.232;2023-07-29T01:08:47;3.13;;;2.93;;
4460;SDS011;2243;48.812;9.232;2023-07-29T01:11:35;3.37;;;3.17;;
4460;SDS011;2243;48.812;9.232;2023-07-29T01:14:31;2.83;;;2.60;;
4460;SDS011;2243;48.812;9.232;2023-07-29T01:17:13;3.70;;;2.90;;
4460;SDS011;2243;48.812;9.232;2023-07-29T01:22:44;2.27;;;2.17;;
4460;SDS011;2243;48.812;9.232;2023-07-29T01:25:15;2.80;;;2.60;;
4460;SDS011;2243;48.812;9.232;2023-07-29T01:27:48;4.97;;;2.80;;
4460;SDS011;2243;48.812;9.232;2023-07-29T01:30:26;2.80;;;2.60;;
4460;SDS011;2243;48.812;9.232;2023-07-29T01:33:25;2.70;;;2.60;;
4460;SDS011;2243;48.812;9.232;2023-07-29T01:36:10;2.80;;;2.60;;
4460;SDS011;2243;48.812;9.232;2023-07-29T01:38:45;2.30;;;2.10;;
4460;SDS011;2243;48.812;9.232;2023-07-29T01:41:19;3.03;;;2.90;;
4460;SDS011;2243;48.812;9.232;2023-07-29T01:43:52;2.67;;;2.47;;
4460;SDS011;2243;48.812;9.232;2023-07-29T01:46:23;2.43;;;2.33;;
4460;SDS011;2243;48.812;9.232;2023-07-29T01:48:54;3.20;;;2.90;;
4460;SDS011;2243;48.812;9.232;2023-07-29T01:51:25;3.37;;;3.07;;
4460;SDS011;2243;48.812;9.232;2023-07-29T01:53:56;2.93;;;2.40;;
4460;SDS011;2243;48.812;9.232;2023-07-29T01:56:30;4.10;;;3.10;;
4460;SDS011;2243;48.812;9.232;2023-07-29T01:59:01;3.30;;;2.70;;
4460;SDS011;2243;48.812;9.232;2023-07-29T02:01:32;2.87;;;2.57;;
4460;SDS011;2243;48.812;9.232;2023-07-29T02:04:03;3.93;;;2.43;;
4460;SDS011;2243;48.812;9.232;2023-07-29T02:06:34;3.90;;;2.30;;
4460;SDS011;2243;48.812;9.232;2023-07-29T02:09:06;3.50;;;2.93;;
4460;SDS011;2243;48.812;9.232;2023-07-29T02:11:37;2.30;;;2.20;;
4460;SDS011;2243;48.812;9.232;2023-07-29T02:14:08;2.60;;;2.07;;
4460;SDS011;2243;48.812;9.232;2023-07-29T02:16:39;1.77;;;1.70;;
4460;SDS011;2243;48.812;9.232;2023-07-29T02:19:10;2.03;;;1.83;;
4460;SDS011;2243;48.812;9.232;2023-07-29T02:21:42;2.30;;;2.13;;
4460;SDS011;2243;48.812;9.232;2023-07-29T02:24:16;3.03;;;1.80;;
4460;SDS011;2243;48.812;9.232;2023-07-29T02:26:47;2.63;;;2.50;;
4460;SDS011;2243;48.812;9.232;2023-07-29T02:29:18;1.90;;;1.80;;
4460;SDS011;2243;48.812;9.232;2023-07-29T02:31:49;5.10;;;2.03;;
4460;SDS011;2243;48.812;9.232;2023-07-29T02:34:20;4.60;;;1.77;;
4460;SDS011;2243;48.812;9.232;2023-07-29T02:36:51;2.00;;;1.90;;
4460;SDS011;2243;48.812;9.232;2023-07-29T02:39:22;2.50;;;2.00;;
4460;SDS011;2243;48.812;9.232;2023-07-29T02:41:53;4.73;;;1.97;;
4460;SDS011;2243;48.812;9.232;2023-07-29T02:44:26;2.03;;;1.90;;
4460;SDS011;2243;48.812;9.232;2023-07-29T02:46:57;2.60;;;1.60;;
4460;SDS011;2243;48.812;9.232;2023-07-29T02:49:28;2.00;;;1.90;;
4460;SDS011;2243;48.812;9.232;2023-07-29T02:51:59;2.17;;;2.07;;
4460;SDS011;2243;48.812;9.232;2023-07-29T02:54:30;2.53;;;1.87;;
4460;SDS011;2243;48.812;9.232;2023-07-29T02:57:01;2.30;;;1.40;;
4460;SDS011;2243;48.812;9.232;2023-07-29T02:59:32;2.20;;;2.00;;
4460;SDS011;2243;48.812;9.232;2023-07-29T03:02:03;2.70;;;2.23;;
4460;SDS011;2243;48.812;9.232;2023-07-29T03:04:34;5.87;;;2.23;;
4460;SDS011;2243;48.812;9.232;2023-07-29T03:07:05;3.73;;;2.40;;
4460;SDS011;2243;48.812;9.232;2023-07-29T03:09:36;3.93;;;2.43;;
4460;SDS011;2243;48.812;9.232;2023-07-29T03:12:07;2.80;;;2.60;;
4460;SDS011;2243;48.812;9.232;2023-07-29T03:14:38;2.90;;;2.70;;
4460;SDS011;2243;48.812;9.232;2023-07-29T03:17:11;4.23;;;2.57;;
4460;SDS011;2243;48.812;9.232;2023-07-29T03:19:42;3.00;;;2.80;;
4460;SDS011;2243;48.812;9.232;2023-07-29T03:22:12;2.60;;;2.50;;
4460;SDS011;2243;48.812;9.232;2023-07-29T03:24:43;2.60;;;2.40;;
4460;SDS011;2243;48.812;9.232;2023-07-29T03:27:14;3.33;;;2.37;;
4460;SDS011;2243;48.812;9.232;2023-07-29T03:29:46;3.00;;;2.50;;
4460;SDS011;2243;48.812;9.232;2023-07-29T03:32:17;5.03;;;2.40;;
4460;SDS011;2243;48.812;9.232;2023-07-29T03:34:48;3.60;;;2.60;;
4460;SDS011;2243;48.812;9.232;2023-07-29T03:37:19;2.10;;;2.00;;
4460;SDS011;2243;48.812;9.232;2023-07-29T03:39:51;2.70;;;2.53;;
4460;SDS011;2243;48.812;9.232;2023-07-29T03:42:22;1.90;;;1.80;;
4460;SDS011;2243;48.812;9.232;2023-07-29T03:44:53;2.10;;;2.00;;
4460;SDS011;2243;48.812;9.232;2023-07-29T03:47:24;2.37;;;2.17;;
4460;SDS011;2243;48.812;9.232;2023-07-29T03:49:55;2.73;;;2.53;;
4460;SDS011;2243;48.812;9.232;2023-07-29T03:52:26;2.80;;;2.60;;
4460;SDS011;2243;48.812;9.232;2023-07-29T03:54:57;2.37;;;2.17;;
4460;SDS011;2243;48.812;9.232;2023-07-29T03:57:28;2.57;;;2.20;;
4460;SDS011;2243;48.812;9.232;2023-07-29T03:59:59;5.83;;;2.27;;
4460;SDS011;2243;48.812;9.232;2023-07-29T04:02:31;2.10;;;2.00;;
4460;SDS011;2243;48.812;9.232;2023-07-29T04:05:02;2.70;;;2.23;;
4460;SDS011;2243;48.812;9.232;2023-07-29T04:07:34;2.67;;;2.47;;
4460;SDS011;2243;48.812;9.232;2023-07-29T04:10:05;3.53;;;3.23;;
4460;SDS011;2243;48.812;9.232;2023-07-29T04:12:37;2.57;;;2.37;;
4460;SDS011;2243;48.812;9.232;2023-07-29T04:15:08;2.80;;;2.67;;
4460;SDS011;2243;48.812;9.232;2023-07-29T04:17:39;2.40;;;2.30;;
4460;SDS011;2243;48.812;9.232;2023-07-29T04:20:11;3.07;;;2.77;;
4460;SDS011;2243;48.812;9.232;2023-07-29T04:22:42;3.90;;;2.50;;
4460;SDS011;2243;48.812;9.232;2023-07-29T04:25:13;2.60;;;2.40;;
4460;SDS011;2243;48.812;9.232;2023-07-29T04:27:44;2.90;;;2.57;;
4460;SDS011;2243;48.812;9.232;2023-07-29T04:30:14;2.90;;;2.70;;
4460;SDS011;2243;48.812;9.232;2023-07-29T04:32:46;2.83;;;2.63;;
4460;SDS011;2243;48.812;9.232;2023-07-29T04:35:18;2.50;;;2.30;;
4460;SDS011;2243;48.812;9.232;2023-07-29T04:37:49;3.07;;;2.87;;
4460;SDS011;2243;48.812;9.232;2023-07-29T04:40:20;2.57;;;2.37;;
4460;SDS011;2243;48.812;9.232;2023-07-29T04:42:53;4.30;;;2.53;;
4460;SDS011;2243;48.812;9.232;2023-07-29T04:45:27;10.53;;;2.30;;
4460;SDS011;2243;48.812;9.232;2023-07-29T04:48:01;2.47;;;2.27;;
4460;SDS011;2243;48.812;9.232;2023-07-29T04:50:32;4.13;;;2.57;;
4460;SDS011;2243;48.812;9.232;2023-07-29T04:53:03;2.57;;;2.37;;
4460;SDS011;2243;48.812;9.232;2023-07-29T04:55:34;3.33;;;2.00;;
4460;SDS011;2243;48.812;9.232;2023-07-29T04:58:05;2.50;;;2.20;;
4460;SDS011;2243;48.812;9.232;2023-07-29T05:00:37;2.93;;;2.73;;
4460;SDS011;2243;48.812;9.232;2023-07-29T05:03:08;3.27;;;2.53;;
4460;SDS011;2243;48.812;9.232;2023-07-29T05:05:39;4.00;;;2.67;;
4460;SDS011;2243;48.812;9.232;2023-07-29T05:08:10;3.83;;;2.97;;
4460;SDS011;2243;48.812;9.232;2023-07-29T05:10:40;2.43;;;2.30;;
4460;SDS011;2243;48.812;9.232;2023-07-29T05:13:11;4.13;;;2.43;;
4460;SDS011;2243;48.812;9.232;2023-07-29T05:15:42;2.53;;;2.33;;
4460;SDS011;2243;48.812;9.232;2023-07-29T05:18:14;2.83;;;2.50;;
4460;SDS011;2243;48.812;9.232;2023-07-29T05:20:46;6.40;;;2.33;;
4460;SDS011;2243;48.812;9.232;2023-07-29T05:23:18;2.87;;;2.67;;
4460;SDS011;2243;48.812;9.232;2023-07-29T05:25:48;2.67;;;2.47;;
4460;SDS011;2243;48.812;9.232;2023-07-29T05:28:19;3.60;;;2.27;;
4460;SDS011;2243;48.812;9.232;2023-07-29T05:30:50;2.07;;;1.97;;
4460;SDS011;2243;48.812;9.232;2023-07-29T05:33:22;3.40;;;2.87;;
4460;SDS011;2243;48.812;9.232;2023-07-29T05:35:53;3.40;;;2.57;;
4460;SDS011;2243;48.812;9.232;2023-07-29T05:38:25;5.53;;;2.23;;
4460;SDS011;2243;48.812;9.232;2023-07-29T05:40:56;2.70;;;2.37;;
4460;SDS011;2243;48.812;9.232;2023-07-29T05:43:27;2.13;;;1.93;;
4460;SDS011;2243;48.812;9.232;2023-07-29T05:45:58;4.83;;;2.20;;
4460;SDS011;2243;48.812;9.232;2023-07-29T05:48:29;2.90;;;2.70;;
4460;SDS011;2243;48.812;9.232;2023-07-29T05:51:00;2.17;;;2.07;;
4460;SDS011;2243;48.812;9.232;2023-07-29T05:53:31;4.83;;;2.87;;
4460;SDS011;2243;48.812;9.232;2023-07-29T05:56:02;3.03;;;2.07;;
4460;SDS011;2243;48.812;9.232;2023-07-29T05:58:33;2.60;;;2.10;;
4460;SDS011;2243;48.812;9.232;2023-07-29T06:01:04;2.60;;;2.50;;
4460;SDS011;2243;48.812;9.232;2023-07-29T06:03:35;2.53;;;2.43;;
4460;SDS011;2243;48.812;9.232;2023-07-29T06:06:06;3.73;;;3.43;;
4460;SDS011;2243;48.812;9.232;2023-07-29T06:08:39;2.80;;;2.60;;
4460;SDS011;2243;48.812;9.232;2023-07-29T06:11:09;2.17;;;2.03;;
4460;SDS011;2243;48.812;9.232;2023-07-29T06:13:40;3.60;;;2.30;;
4460;SDS011;2243;48.812;9.232;2023-07-29T06:16:11;3.27;;;2.60;;
4460;SDS011;2243;48.812;9.232;2023-07-29T06:18:42;2.97;;;2.73;;
4460;SDS011;2243;48.812;9.232;2023-07-29T06:21:13;2.87;;;2.67;;
4460;SDS011;2243;48.812;9.232;2023-07-29T06:23:47;2.87;;;2.63;;
4460;SDS011;2243;48.812;9.232;2023-07-29T06:26:18;2.53;;;2.37;;
4460;SDS011;2243;48.812;9.232;2023-07-29T06:28:49;3.27;;;2.57;;
4460;SDS011;2243;48.812;9.232;2023-07-29T06:31:20;5.77;;;2.27;;
4460;SDS011;2243;48.812;9.232;2023-07-29T06:33:51;2.70;;;2.50;;
4460;SDS011;2243;48.812;9.232;2023-07-29T06:36:22;3.63;;;2.10;;
4460;SDS011;2243;48.812;9.232;2023-07-29T06:38:53;4.03;;;2.60;;
4460;SDS011;2243;48.812;9.232;2023-07-29T06:41:24;2.27;;;2.17;;
4460;SDS011;2243;48.812;9.232;2023-07-29T06:43:55;6.03;;;2.60;;
4460;SDS011;2243;48.812;9.232;2023-07-29T06:46:26;2.50;;;2.40;;
4460;SDS011;2243;48.812;9.232;2023-07-29T06:48:57;2.50;;;2.30;;
4460;SDS011;2243;48.812;9.232;2023-07-29T06:51:28;1.97;;;1.80;;
4460;SDS011;2243;48.812;9.232;2023-07-29T06:54:02;2.77;;;2.37;;
4460;SDS011;2243;48.812;9.232;2023-07-29T06:56:33;2.20;;;2.10;;
4460;SDS011;2243;48.812;9.232;2023-07-29T06:59:05;3.43;;;2.33;;
4460;SDS011;2243;48.812;9.232;2023-07-29T07:01:36;7.23;;;2.27;;
4460;SDS011;2243;48.812;9.232;2023-07-29T07:04:06;5.53;;;2.40;;
4460;SDS011;2243;48.812;9.232;2023-07-29T07:06:37;3.63;;;2.10;;
4460;SDS011;2243;48.812;9.232;2023-07-29T07:09:08;3.27;;;2.83;;
4460;SDS011;2243;48.812;9.232;2023-07-29T07:11:39;2.50;;;2.27;;
4460;SDS011;2243;48.812;9.232;2023-07-29T07:14:10;3.53;;;2.20;;
4460;SDS011;2243;48.812;9.232;2023-07-29T07:16:41;6.50;;;3.10;;
4460;SDS011;2243;48.812;9.232;2023-07-29T07:19:15;2.43;;;2.33;;
4460;SDS011;2243;48.812;9.232;2023-07-29T07:21:47;3.47;;;2.50;;
4460;SDS011;2243;48.812;9.232;2023-07-29T07:24:18;2.80;;;2.60;;
4460;SDS011;2243;48.812;9.232;2023-07-29T07:26:49;2.30;;;2.20;;
4460;SDS011;2243;48.812;9.232;2023-07-29T07:29:19;3.30;;;2.57;;
4460;SDS011;2243;48.812;9.232;2023-07-29T07:31:51;3.87;;;2.10;;
4460;SDS011;2243;48.812;9.232;2023-07-29T07:34:23;2.13;;;2.03;;
4460;SDS011;2243;48.812;9.232;2023-07-29T07:36:54;1.90;;;1.80;;
4460;SDS011;2243;48.812;9.232;2023-07-29T07:39:25;2.87;;;1.80;;
4460;SDS011;2243;48.812;9.232;2023-07-29T07:41:56;1.83;;;1.73;;
4460;SDS011;2243;48.812;9.232;2023-07-29T07:44:27;2.37;;;1.63;;
4460;SDS011;2243;48.812;9.232;2023-07-29T07:46:58;1.83;;;1.73;;
4460;SDS011;2243;48.812;9.232;2023-07-29T07:49:32;2.47;;;1.73;;
4460;SDS011;2243;48.812;9.232;2023-07-29T07:52:03;1.90;;;1.70;;
4460;SDS011;2243;48.812;9.232;2023-07-29T07:54:34;2.00;;;1.83;;
4460;SDS011;2243;48.812;9.232;2023-07-29T07:57:05;2.00;;;1.80;;
4460;SDS011;2243;48.812;9.232;2023-07-29T07:59:36;2.40;;;1.67;;
4460;SDS011;2243;48.812;9.232;2023-07-29T08:02:07;1.77;;;1.67;;
4460;SDS011;2243;48.812;9.232;2023-07-29T08:04:38;1.73;;;1.63;;
4460;SDS011;2243;48.812;9.232;2023-07-29T08:07:09;2.60;;;2.17;;
4460;SDS011;2243;48.812;9.232;2023-07-29T08:09:40;2.70;;;1.70;;
4460;SDS011;2243;48.812;9.232;2023-07-29T08:12:11;2.50;;;2.20;;
4460;SDS011;2243;48.812;9.232;2023-07-29T08:14:42;4.20;;;1.97;;
4460;SDS011;2243;48.812;9.232;2023-07-29T08:17:13;1.80;;;1.70;;
4460;SDS011;2243;48.812;9.232;2023-07-29T08:19:44;1.67;;;1.57;;
4460;SDS011;2243;48.812;9.232;2023-07-29T08:22:15;3.80;;;2.00;;
4460;SDS011;2243;48.812;9.232;2023-07-29T08:24:47;3.03;;;1.87;;
4460;SDS011;2243;48.812;9.232;2023-07-29T08:27:18;1.67;;;1.57;;
4460;SDS011;2243;48.812;9.232;2023-07-29T08:29:49;5.70;;;1.50;;
4460;SDS011;2243;48.812;9.232;2023-07-29T08:32:20;1.70;;;1.60;;
4460;SDS011;2243;48.812;9.232;2023-07-29T08:34:51;2.50;;;1.80;;
4460;SDS011;2243;48.812;9.232;2023-07-29T08:37:22;6.23;;;2.23;;
4460;SDS011;2243;48.812;9.232;2023-07-29T08:39:53;1.80;;;1.70;;
4460;SDS011;2243;48.812;9.232;2023-07-29T08:42:25;1.50;;;1.40;;
4460;SDS011;2243;48.812;9.232;2023-07-29T08:45:06;2.07;;;1.80;;
4460;SDS011;2243;48.812;9.232;2023-07-29T08:47:39;2.63;;;1.77;;
4460;SDS011;2243;48.812;9.232;2023-07-29T08:50:09;1.23;;;1.17;;
4460;SDS011;2243;48.812;9.232;2023-07-29T08:52:44;1.40;;;1.30;;
4460;SDS011;2243;48.812;9.232;2023-07-29T08:55:16;1.77;;;1.67;;
4460;SDS011;2243;48.812;9.232;2023-07-29T08:57:47;1.50;;;1.40;;
4460;SDS011;2243;48.812;9.232;2023-07-29T09:00:18;1.40;;;1.30;;
4460;SDS011;2243;48.812;9.232;2023-07-29T09:02:51;1.33;;;1.23;;
4460;SDS011;2243;48.812;9.232;2023-07-29T09:05:22;1.87;;;1.50;;
4460;SDS011;2243;48.812;9.232;2023-07-29T09:07:53;3.63;;;1.47;;
4460;SDS011;2243;48.812;9.232;2023-07-29T09:10:25;1.83;;;1.30;;
4460;SDS011;2243;48.812;9.232;2023-07-29T09:12:56;2.70;;;1.67;;
4460;SDS011;2243;48.812;9.232;2023-07-29T09:15:28;1.83;;;1.73;;
4460;SDS011;2243;48.812;9.232;2023-07-29T09:18:18;1.50;;;1.40;;
4460;SDS011;2243;48.812;9.232;2023-07-29T09:20:50;1.60;;;1.50;;
4460;SDS011;2243;48.812;9.232;2023-07-29T09:23:21;1.70;;;1.60;;
4460;SDS011;2243;48.812;9.232;2023-07-29T09:25:52;1.60;;;1.50;;
4460;SDS011;2243;48.812;9.232;2023-07-29T09:28:35;1.70;;;1.60;;
4460;SDS011;2243;48.812;9.232;2023-07-29T09:31:18;1.20;;;1.10;;
4460;SDS011;2243;48.812;9.232;2023-07-29T09:34:01;3.17;;;1.80;;
4460;SDS011;2243;48.812;9.232;2023-07-29T09:36:35;1.57;;;1.47;;
4460;SDS011;2243;48.812;9.232;2023-07-29T09:39:11;1.17;;;1.17;;
4460;SDS011;2243;48.812;9.232;2023-07-29T09:41:48;1.97;;;1.30;;
4460;SDS011;2243;48.812;9.232;2023-07-29T09:44:21;1.70;;;1.60;;
4460;SDS011;2243;48.812;9.232;2023-07-29T09:46:52;1.73;;;1.63;;
4460;SDS011;2243;48.812;9.232;2023-07-29T09:49:24;1.97;;;1.87;;
4460;SDS011;2243;48.812;9.232;2023-07-29T09:51:58;1.60;;;1.50;;
4460;SDS011;2243;48.812;9.232;2023-07-29T09:54:32;1.73;;;1.63;;
4460;SDS011;2243;48.812;9.232;2023-07-29T09:57:03;1.87;;;1.63;;
4460;SDS011;2243;48.812;9.232;2023-07-29T09:59:37;1.57;;;1.47;;
4460;SDS011;2243;48.812;9.232;2023-07-29T10:02:09;1.60;;;1.50;;
4460;SDS011;2243;48.812;9.232;2023-07-29T10:04:46;1.50;;;1.40;;
4460;SDS011;2243;48.812;9.232;2023-07-29T10:07:17;1.83;;;1.73;;
4460;SDS011;2243;48.812;9.232;2023-07-29T10:09:49;1.97;;;1.87;;
4460;SDS011;2243;48.812;9.232;2023-07-29T10:12:23;4.57;;;1.50;;
4460;SDS011;2243;48.812;9.232;2023-07-29T10:14:55;1.90;;;1.57;;
4460;SDS011;2243;48.812;9.232;2023-07-29T10:17:37;1.87;;;1.77;;
4460;SDS011;2243;48.812;9.232;2023-07-29T10:20:10;2.03;;;1.57;;
4460;SDS011;2243;48.812;9.232;2023-07-29T10:22:43;1.57;;;1.47;;
4460;SDS011;2243;48.812;9.232;2023-07-29T10:25:23;1.80;;;1.70;;
4460;SDS011;2243;48.812;9.232;2023-07-29T10:30:29;1.27;;;1.03;;
4460;SDS011;2243;48.812;9.232;2023-07-29T10:33:02;1.37;;;1.27;;
4460;SDS011;2243;48.812;9.232;2023-07-29T10:35:35;3.03;;;1.40;;
4460;SDS011;2243;48.812;9.232;2023-07-29T10:38:08;1.70;;;1.60;;
4460;SDS011;2243;48.812;9.232;2023-07-29T10:40:52;2.63;;;2.40;;
4460;SDS011;2243;48.812;9.232;2023-07-29T10:46:19;1.33;;;1.23;;
4460;SDS011;2243;48.812;9.232;2023-07-29T10:48:55;1.90;;;1.67;;
4460;SDS011;2243;48.812;9.232;2023-07-29T10:51:30;2.50;;;1.57;;
4460;SDS011;2243;48.812;9.232;2023-07-29T10:54:10;1.40;;;1.30;;
4460;SDS011;2243;48.812;9.232;2023-07-29T10:56:48;1.43;;;1.33;;
4460;SDS011;2243;48.812;9.232;2023-07-29T11:04:28;1.13;;;1.13;;
4460;SDS011;2243;48.812;9.232;2023-07-29T11:09:41;1.60;;;1.50;;
4460;SDS011;2243;48.812;9.232;2023-07-29T11:15:14;1.73;;;1.63;;
4460;SDS011;2243;48.812;9.232;2023-07-29T11:20:29;2.30;;;1.50;;
4460;SDS011;2243;48.812;9.232;2023-07-29T11:23:03;1.70;;;1.60;;
4460;SDS011;2243;48.812;9.232;2023-07-29T11:25:36;1.57;;;1.47;;
4460;SDS011;2243;48.812;9.232;2023-07-29T11:28:08;6.80;;;3.00;;
4460;SDS011;2243;48.812;9.232;2023-07-29T11:30:39;1.50;;;1.40;;
4460;SDS011;2243;48.812;9.232;2023-07-29T11:33:10;1.37;;;1.10;;
4460;SDS011;2243;48.812;9.232;2023-07-29T11:35:42;1.50;;;1.40;;
4460;SDS011;2243;48.812;9.232;2023-07-29T11:38:17;1.40;;;1.30;;
4460;SDS011;2243;48.812;9.232;2023-07-29T11:40:56;1.33;;;1.20;;
4460;SDS011;2243;48.812;9.232;2023-07-29T11:43:30;1.03;;;1.03;;
4460;SDS011;2243;48.812;9.232;2023-07-29T11:46:06;1.47;;;1.37;;
4460;SDS011;2243;48.812;9.232;2023-07-29T11:48:38;1.57;;;1.47;;
4460;SDS011;2243;48.812;9.232;2023-07-29T11:51:09;1.97;;;1.77;;
4460;SDS011;2243;48.812;9.232;2023-07-29T11:53:41;1.70;;;1.60;;
4460;SDS011;2243;48.812;9.232;2023-07-29T11:56:12;1.07;;;1.07;;
4460;SDS011;2243;48.812;9.232;2023-07-29T11:58:43;1.57;;;1.47;;
4460;SDS011;2243;48.812;9.232;2023-07-29T12:01:14;1.73;;;1.50;;
4460;SDS011;2243;48.812;9.232;2023-07-29T12:03:45;1.77;;;1.67;;
4460;SDS011;2243;48.812;9.232;2023-07-29T12:06:17;1.47;;;1.37;;
4460;SDS011;2243;48.812;9.232;2023-07-29T12:08:48;1.97;;;1.40;;
4460;SDS011;2243;48.812;9.232;2023-07-29T12:11:23;1.60;;;1.43;;
4460;SDS011;2243;48.812;9.232;2023-07-29T12:13:54;1.70;;;1.60;;
4460;SDS011;2243;48.812;9.232;2023-07-29T12:16:25;1.83;;;1.70;;
4460;SDS011;2243;48.812;9.232;2023-07-29T12:18:56;1.90;;;1.20;;
4460;SDS011;2243;48.812;9.232;2023-07-29T12:21:31;2.30;;;1.63;;
4460;SDS011;2243;48.812;9.232;2023-07-29T12:24:02;1.43;;;1.33;;
4460;SDS011;2243;48.812;9.232;2023-07-29T12:26:35;1.53;;;1.43;;
4460;SDS011;2243;48.812;9.232;2023-07-29T12:29:25;1.57;;;1.40;;
4460;SDS011;2243;48.812;9.232;2023-07-29T12:31:57;1.20;;;1.10;;
4460;SDS011;2243;48.812;9.232;2023-07-29T12:34:31;1.83;;;1.73;;
4460;SDS011;2243;48.812;9.232;2023-07-29T12:37:03;1.50;;;1.40;;
4460;SDS011;2243;48.812;9.232;2023-07-29T12:39:35;1.83;;;1.73;;
4460;SDS011;2243;48.812;9.232;2023-07-29T12:42:13;2.10;;;2.00;;
4460;SDS011;2243;48.812;9.232;2023-07-29T12:44:46;2.47;;;2.27;;
4460;SDS011;2243;48.812;9.232;2023-07-29T12:47:17;2.00;;;1.90;;
4460;SDS011;2243;48.812;9.232;2023-07-29T12:49:48;1.63;;;1.53;;
4460;SDS011;2243;48.812;9.232;2023-07-29T12:52:19;1.60;;;1.50;;
4460;SDS011;2243;48.812;9.232;2023-07-29T12:54:50;2.60;;;1.60;;
4460;SDS011;2243;48.812;9.232;2023-07-29T12:57:21;1.50;;;1.40;;
4460;SDS011;2243;48.812;9.232;2023-07-29T12:59:51;2.53;;;2.17;;
4460;SDS011;2243;48.812;9.232;2023-07-29T13:02:22;2.30;;;1.50;;
4460;SDS011;2243;48.812;9.232;2023-07-29T13:04:53;1.83;;;1.50;;
4460;SDS011;2243;48.812;9.232;2023-07-29T13:07:24;1.30;;;1.20;;
4460;SDS011;2243;48.812;9.232;2023-07-29T13:09:55;1.50;;;1.40;;
4460;SDS011;2243;48.812;9.232;2023-07-29T13:12:26;1.60;;;1.50;;
4460;SDS011;2243;48.812;9.232;2023-07-29T13:14:57;1.33;;;1.23;;
4460;SDS011;2243;48.812;9.232;2023-07-29T13:17:28;1.50;;;1.40;;
4460;SDS011;2243;48.812;9.232;2023-07-29T13:19:59;1.60;;;1.50;;
4460;SDS011;2243;48.812;9.232;2023-07-29T13:22:32;1.87;;;1.77;;
4460;SDS011;2243;48.812;9.232;2023-07-29T13:25:03;1.80;;;1.70;;
4460;SDS011;2243;48.812;9.232;2023-07-29T13:27:34;3.93;;;1.93;;
4460;SDS011;2243;48.812;9.232;2023-07-29T13:30:06;1.53;;;1.40;;
4460;SDS011;2243;48.812;9.232;2023-07-29T13:32:38;1.83;;;1.73;;
4460;SDS011;2243;48.812;9.232;2023-07-29T13:35:09;4.07;;;1.77;;
4460;SDS011;2243;48.812;9.232;2023-07-29T13:37:40;1.53;;;1.43;;
4460;SDS011;2243;48.812;9.232;2023-07-29T13:40:11;2.70;;;2.50;;
4460;SDS011;2243;48.812;9.232;2023-07-29T13:42:42;2.13;;;1.93;;
4460;SDS011;2243;48.812;9.232;2023-07-29T13:45:12;1.50;;;1.40;;
4460;SDS011;2243;48.812;9.232;2023-07-29T13:47:43;2.33;;;2.00;;
4460;SDS011;2243;48.812;9.232;2023-07-29T13:50:15;1.93;;;1.83;;
4460;SDS011;2243;48.812;9.232;2023-07-29T13:52:46;1.30;;;1.20;;
4460;SDS011;2243;48.812;9.232;2023-07-29T13:55:18;1.70;;;1.60;;
4460;SDS011;2243;48.812;9.232;2023-07-29T13:57:49;1.67;;;1.57;;
4460;SDS011;2243;48.812;9.232;2023-07-29T14:00:22;1.80;;;1.70;;
4460;SDS011;2243;48.812;9.232;2023-07-29T14:02:53;2.00;;;1.90;;
4460;SDS011;2243;48.812;9.232;2023-07-29T14:05:24;1.90;;;1.50;;
4460;SDS011;2243;48.812;9.232;2023-07-29T14:07:55;1.50;;;1.40;;
4460;SDS011;2243;48.812;9.232;2023-07-29T14:10:26;2.13;;;2.00;;
4460;SDS011;2243;48.812;9.232;2023-07-29T14:12:57;1.53;;;1.43;;
4460;SDS011;2243;48.812;9.232;2023-07-29T14:15:28;1.73;;;1.63;;
4460;SDS011;2243;48.812;9.232;2023-07-29T14:17:59;1.83;;;1.73;;
4460;SDS011;2243;48.812;9.232;2023-07-29T14:20:30;1.90;;;1.80;;
4460;SDS011;2243;48.812;9.232;2023-07-29T14:23:01;1.70;;;1.60;;
4460;SDS011;2243;48.812;9.232;2023-07-29T14:25:32;1.83;;;1.60;;
4460;SDS011;2243;48.812;9.232;2023-07-29T14:28:03;1.50;;;1.40;;
4460;SDS011;2243;48.812;9.232;2023-07-29T14:30:34;1.60;;;1.50;;
4460;SDS011;2243;48.812;9.232;2023-07-29T14:33:05;1.93;;;1.83;;
4460;SDS011;2243;48.812;9.232;2023-07-29T14:35:37;2.10;;;2.00;;
4460;SDS011;2243;48.812;9.232;2023-07-29T14:38:08;1.50;;;1.40;;
4460;SDS011;2243;48.812;9.232;2023-07-29T14:40:39;1.70;;;1.60;;
4460;SDS011;2243;48.812;9.232;2023-07-29T14:43:10;1.90;;;1.80;;
4460;SDS011;2243;48.812;9.232;2023-07-29T14:45:41;2.07;;;1.97;;
4460;SDS011;2243;48.812;9.232;2023-07-29T14:48:12;1.87;;;1.77;;
4460;SDS011;2243;48.812;9.232;2023-07-29T14:50:43;1.67;;;1.57;;
4460;SDS011;2243;48.812;9.232;2023-07-29T14:53:14;1.63;;;1.53;;
4460;SDS011;2243;48.812;9.232;2023-07-29T14:55:45;2.70;;;1.60;;
4460;SDS011;2243;48.812;9.232;2023-07-29T14:58:16;1.97;;;1.87;;
4460;SDS011;2243;48.812;9.232;2023-07-29T15:00:47;1.83;;;1.73;;
4460;SDS011;2243;48.812;9.232;2023-07-29T15:03:18;2.30;;;2.10;;
4460;SDS011;2243;48.812;9.232;2023-07-29T15:05:49;2.03;;;1.93;;
4460;SDS011;2243;48.812;9.232;2023-07-29T15:08:21;2.13;;;2.00;;
4460;SDS011;2243;48.812;9.232;2023-07-29T15:10:51;2.50;;;2.40;;
4460;SDS011;2243;48.812;9.232;2023-07-29T15:13:24;1.90;;;1.80;;
4460;SDS011;2243;48.812;9.232;2023-07-29T15:15:55;1.90;;;1.80;;
4460;SDS011;2243;48.812;9.232;2023-07-29T15:18:26;3.00;;;2.80;;
4460;SDS011;2243;48.812;9.232;2023-07-29T15:21:00;1.90;;;1.80;;
4460;SDS011;2243;48.812;9.232;2023-07-29T15:23:32;1.93;;;1.83;;
4460;SDS011;2243;48.812;9.232;2023-07-29T15:26:03;2.67;;;1.83;;
4460;SDS011;2243;48.812;9.232;2023-07-29T15:28:34;1.80;;;1.70;;
4460;SDS011;2243;48.812;9.232;2023-07-29T15:31:05;2.40;;;1.63;;
4460;SDS011;2243;48.812;9.232;2023-07-29T15:33:37;2.00;;;1.80;;
4460;SDS011;2243;48.812;9.232;2023-07-29T15:36:08;2.07;;;1.87;;
4460;SDS011;2243;48.812;9.232;2023-07-29T15:38:39;1.70;;;1.60;;
4460;SDS011;2243;48.812;9.232;2023-07-29T15:41:09;3.47;;;2.07;;
4460;SDS011;2243;48.812;9.232;2023-07-29T15:43:40;2.30;;;2.10;;
4460;SDS011;2243;48.812;9.232;2023-07-29T15:46:11;2.13;;;2.03;;
4460;SDS011;2243;48.812;9.232;2023-07-29T15:48:42;1.97;;;1.87;;
4460;SDS011;2243;48.812;9.232;2023-07-29T15:51:14;2.60;;;2.07;;
4460;SDS011;2243;48.812;9.232;2023-07-29T15:53:45;2.60;;;2.00;;
4460;SDS011;2243;48.812;9.232;2023-07-29T15:56:16;2.30;;;2.10;;
4460;SDS011;2243;48.812;9.232;2023-07-29T15:58:46;1.93;;;1.77;;
4460;SDS011;2243;48.812;9.232;2023-07-29T16:01:17;3.00;;;2.80;;
4460;SDS011;2243;48.812;9.232;2023-07-29T16:03:48;2.00;;;1.90;;
4460;SDS011;2243;48.812;9.232;2023-07-29T16:06:20;1.73;;;1.63;;
4460;SDS011;2243;48.812;9.232;2023-07-29T16:08:51;2.63;;;2.43;;